Terminal Aerodrome Forecast
Issued by NWS Chicago, IL

Home | Current Version | Previous Version | Graphics & Text | Print | Product List | Glossary On
Versions: 1 2 3 4 5 6 7 8 9 10 11 12 13 14 15 16 17 18 19 20 21 22 23 24 25 26 27 28 29 30 31 32 33
332
FTUS43 KLOT 211028 AAB
TAFRFD
TAF AMD
KRFD 211028Z 2110/2206 18006KT P6SM FEW005 SCT250
      TEMPO 2111/2113 4SM BR BKN005
     FM211500 21012G18KT P6SM SCT050
     FM220200 20010KT P6SM FEW020 BKN120=

USA.gov is the U.S. government's official web portal to all federal, state and local government web resources and services.